sensor_id;sensor_type;location;lat;lon;timestamp;P1;durP1;ratioP1;P2;durP2;ratioP2
65936;SDS011;52707;52.086;5.418;2023-03-01T00:00:48;15.10;;;7.53;;
65936;SDS011;52707;52.086;5.418;2023-03-01T00:03:14;15.40;;;7.47;;
65936;SDS011;52707;52.086;5.418;2023-03-01T00:05:46;12.93;;;7.30;;
65936;SDS011;52707;52.086;5.418;2023-03-01T00:08:13;11.95;;;7.28;;
65936;SDS011;52707;52.086;5.418;2023-03-01T00:10:39;8.98;;;6.43;;
65936;SDS011;52707;52.086;5.418;2023-03-01T00:13:05;12.45;;;6.78;;
65936;SDS011;52707;52.086;5.418;2023-03-01T00:15:32;10.50;;;7.32;;
65936;SDS011;52707;52.086;5.418;2023-03-01T00:17:58;10.93;;;7.40;;
65936;SDS011;52707;52.086;5.418;2023-03-01T00:20:24;14.82;;;7.55;;
65936;SDS011;52707;52.086;5.418;2023-03-01T00:22:51;12.23;;;7.53;;
65936;SDS011;52707;52.086;5.418;2023-03-01T00:25:17;12.60;;;7.47;;
65936;SDS011;52707;52.086;5.418;2023-03-01T00:27:43;9.07;;;6.60;;
65936;SDS011;52707;52.086;5.418;2023-03-01T00:30:10;9.77;;;7.03;;
65936;SDS011;52707;52.086;5.418;2023-03-01T00:32:36;10.50;;;6.68;;
65936;SDS011;52707;52.086;5.418;2023-03-01T00:35:02;10.80;;;7.25;;
65936;SDS011;52707;52.086;5.418;2023-03-01T00:37:29;17.73;;;7.55;;
65936;SDS011;52707;52.086;5.418;2023-03-01T00:39:55;9.98;;;6.57;;
65936;SDS011;52707;52.086;5.418;2023-03-01T00:42:21;11.13;;;7.18;;
65936;SDS011;52707;52.086;5.418;2023-03-01T00:44:48;9.90;;;7.15;;
65936;SDS011;52707;52.086;5.418;2023-03-01T00:47:14;12.65;;;6.85;;
65936;SDS011;52707;52.086;5.418;2023-03-01T00:49:40;11.60;;;7.18;;
65936;SDS011;52707;52.086;5.418;2023-03-01T00:52:07;9.68;;;7.10;;
65936;SDS011;52707;52.086;5.418;2023-03-01T00:54:33;12.85;;;6.95;;
65936;SDS011;52707;52.086;5.418;2023-03-01T00:56:59;14.27;;;8.15;;
65936;SDS011;52707;52.086;5.418;2023-03-01T00:59:25;12.43;;;6.47;;
65936;SDS011;52707;52.086;5.418;2023-03-01T01:01:52;10.70;;;6.75;;
65936;SDS011;52707;52.086;5.418;2023-03-01T01:04:18;10.85;;;7.25;;
65936;SDS011;52707;52.086;5.418;2023-03-01T01:06:45;11.80;;;6.70;;
65936;SDS011;52707;52.086;5.418;2023-03-01T01:09:13;15.95;;;7.97;;
65936;SDS011;52707;52.086;5.418;2023-03-01T01:11:46;11.60;;;8.13;;
65936;SDS011;52707;52.086;5.418;2023-03-01T01:14:13;11.82;;;7.10;;
65936;SDS011;52707;52.086;5.418;2023-03-01T01:16:39;11.93;;;7.43;;
65936;SDS011;52707;52.086;5.418;2023-03-01T01:19:06;13.98;;;7.43;;
65936;SDS011;52707;52.086;5.418;2023-03-01T01:21:32;11.45;;;8.07;;
65936;SDS011;52707;52.086;5.418;2023-03-01T01:23:59;12.48;;;7.68;;
65936;SDS011;52707;52.086;5.418;2023-03-01T01:26:27;10.65;;;7.65;;
65936;SDS011;52707;52.086;5.418;2023-03-01T01:28:54;15.02;;;8.13;;
65936;SDS011;52707;52.086;5.418;2023-03-01T01:31:21;11.98;;;7.93;;
65936;SDS011;52707;52.086;5.418;2023-03-01T01:33:50;15.57;;;8.27;;
65936;SDS011;52707;52.086;5.418;2023-03-01T01:36:16;16.33;;;8.38;;
65936;SDS011;52707;52.086;5.418;2023-03-01T01:38:42;16.40;;;9.65;;
65936;SDS011;52707;52.086;5.418;2023-03-01T01:41:09;21.20;;;9.35;;
65936;SDS011;52707;52.086;5.418;2023-03-01T01:43:39;15.13;;;8.85;;
65936;SDS011;52707;52.086;5.418;2023-03-01T01:46:12;11.23;;;8.07;;
65936;SDS011;52707;52.086;5.418;2023-03-01T01:48:44;12.93;;;8.60;;
65936;SDS011;52707;52.086;5.418;2023-03-01T01:51:15;15.63;;;8.43;;
65936;SDS011;52707;52.086;5.418;2023-03-01T01:53:43;21.23;;;7.80;;
65936;SDS011;52707;52.086;5.418;2023-03-01T01:56:11;11.85;;;8.00;;
65936;SDS011;52707;52.086;5.418;2023-03-01T01:58:38;14.65;;;8.25;;
65936;SDS011;52707;52.086;5.418;2023-03-01T02:01:04;13.13;;;8.38;;
65936;SDS011;52707;52.086;5.418;2023-03-01T02:03:31;13.52;;;8.23;;
65936;SDS011;52707;52.086;5.418;2023-03-01T02:06:04;15.07;;;8.18;;
65936;SDS011;52707;52.086;5.418;2023-03-01T02:08:32;15.73;;;9.18;;
65936;SDS011;52707;52.086;5.418;2023-03-01T02:10:59;11.73;;;7.90;;
65936;SDS011;52707;52.086;5.418;2023-03-01T02:13:27;15.50;;;8.70;;
65936;SDS011;52707;52.086;5.418;2023-03-01T02:15:53;11.68;;;8.20;;
65936;SDS011;52707;52.086;5.418;2023-03-01T02:18:20;10.60;;;7.82;;
65936;SDS011;52707;52.086;5.418;2023-03-01T02:21:01;12.75;;;8.35;;
65936;SDS011;52707;52.086;5.418;2023-03-01T02:23:31;11.60;;;7.80;;
65936;SDS011;52707;52.086;5.418;2023-03-01T02:26:01;12.32;;;8.43;;
65936;SDS011;52707;52.086;5.418;2023-03-01T02:28:31;14.80;;;8.02;;
65936;SDS011;52707;52.086;5.418;2023-03-01T02:30:57;15.07;;;8.55;;
65936;SDS011;52707;52.086;5.418;2023-03-01T02:33:42;15.23;;;9.02;;
65936;SDS011;52707;52.086;5.418;2023-03-01T02:36:10;14.63;;;8.70;;
65936;SDS011;52707;52.086;5.418;2023-03-01T02:38:40;12.95;;;8.95;;
65936;SDS011;52707;52.086;5.418;2023-03-01T02:41:06;12.20;;;7.90;;
65936;SDS011;52707;52.086;5.418;2023-03-01T02:43:33;14.95;;;8.73;;
65936;SDS011;52707;52.086;5.418;2023-03-01T02:46:34;13.55;;;8.27;;
65936;SDS011;52707;52.086;5.418;2023-03-01T02:48:54;14.40;;;8.50;;
65936;SDS011;52707;52.086;5.418;2023-03-01T02:53:55;11.32;;;8.50;;
65936;SDS011;52707;52.086;5.418;2023-03-01T02:56:25;20.15;;;9.18;;
65936;SDS011;52707;52.086;5.418;2023-03-01T02:58:51;13.75;;;9.70;;
65936;SDS011;52707;52.086;5.418;2023-03-01T03:01:18;14.40;;;8.82;;
65936;SDS011;52707;52.086;5.418;2023-03-01T03:03:45;14.95;;;9.45;;
65936;SDS011;52707;52.086;5.418;2023-03-01T03:06:11;12.40;;;9.60;;
65936;SDS011;52707;52.086;5.418;2023-03-01T03:08:38;14.55;;;9.43;;
65936;SDS011;52707;52.086;5.418;2023-03-01T03:11:05;18.27;;;9.95;;
65936;SDS011;52707;52.086;5.418;2023-03-01T03:13:31;14.70;;;9.73;;
65936;SDS011;52707;52.086;5.418;2023-03-01T03:15:58;15.52;;;9.50;;
65936;SDS011;52707;52.086;5.418;2023-03-01T03:18:24;12.55;;;9.05;;
65936;SDS011;52707;52.086;5.418;2023-03-01T03:20:54;14.52;;;9.02;;
65936;SDS011;52707;52.086;5.418;2023-03-01T03:23:21;15.43;;;9.15;;
65936;SDS011;52707;52.086;5.418;2023-03-01T03:25:48;18.17;;;9.15;;
65936;SDS011;52707;52.086;5.418;2023-03-01T03:28:14;15.88;;;9.48;;
65936;SDS011;52707;52.086;5.418;2023-03-01T03:30:42;13.90;;;8.65;;
65936;SDS011;52707;52.086;5.418;2023-03-01T03:33:12;15.88;;;8.93;;
65936;SDS011;52707;52.086;5.418;2023-03-01T03:35:40;15.20;;;9.13;;
65936;SDS011;52707;52.086;5.418;2023-03-01T03:38:08;15.15;;;9.13;;
65936;SDS011;52707;52.086;5.418;2023-03-01T03:40:42;15.52;;;8.52;;
65936;SDS011;52707;52.086;5.418;2023-03-01T03:43:10;14.65;;;8.18;;
65936;SDS011;52707;52.086;5.418;2023-03-01T03:45:36;13.55;;;8.50;;
65936;SDS011;52707;52.086;5.418;2023-03-01T03:48:04;11.95;;;8.95;;
65936;SDS011;52707;52.086;5.418;2023-03-01T03:50:31;14.18;;;8.48;;
65936;SDS011;52707;52.086;5.418;2023-03-01T03:52:59;13.80;;;9.60;;
65936;SDS011;52707;52.086;5.418;2023-03-01T03:55:26;10.80;;;7.97;;
65936;SDS011;52707;52.086;5.418;2023-03-01T03:57:56;15.57;;;8.48;;
65936;SDS011;52707;52.086;5.418;2023-03-01T04:00:23;15.48;;;8.75;;
65936;SDS011;52707;52.086;5.418;2023-03-01T04:02:50;15.35;;;8.80;;
65936;SDS011;52707;52.086;5.418;2023-03-01T04:05:17;13.55;;;8.93;;
65936;SDS011;52707;52.086;5.418;2023-03-01T04:07:44;14.45;;;8.75;;
65936;SDS011;52707;52.086;5.418;2023-03-01T04:10:13;14.13;;;8.80;;
65936;SDS011;52707;52.086;5.418;2023-03-01T04:12:39;12.68;;;8.73;;
65936;SDS011;52707;52.086;5.418;2023-03-01T04:15:06;13.63;;;8.70;;
65936;SDS011;52707;52.086;5.418;2023-03-01T04:17:42;13.70;;;8.70;;
65936;SDS011;52707;52.086;5.418;2023-03-01T04:20:09;12.93;;;8.63;;
65936;SDS011;52707;52.086;5.418;2023-03-01T04:22:37;14.68;;;8.90;;
65936;SDS011;52707;52.086;5.418;2023-03-01T04:25:04;11.95;;;8.30;;
65936;SDS011;52707;52.086;5.418;2023-03-01T04:27:35;14.88;;;8.18;;
65936;SDS011;52707;52.086;5.418;2023-03-01T04:30:02;14.40;;;8.23;;
65936;SDS011;52707;52.086;5.418;2023-03-01T04:32:29;13.60;;;8.80;;
65936;SDS011;52707;52.086;5.418;2023-03-01T04:34:55;14.23;;;8.88;;
65936;SDS011;52707;52.086;5.418;2023-03-01T04:37:22;13.85;;;9.02;;
65936;SDS011;52707;52.086;5.418;2023-03-01T04:39:48;13.57;;;9.02;;
65936;SDS011;52707;52.086;5.418;2023-03-01T04:42:14;20.90;;;9.75;;
65936;SDS011;52707;52.086;5.418;2023-03-01T04:44:41;17.55;;;9.45;;
65936;SDS011;52707;52.086;5.418;2023-03-01T04:47:07;12.90;;;8.68;;
65936;SDS011;52707;52.086;5.418;2023-03-01T04:49:33;11.45;;;8.18;;
65936;SDS011;52707;52.086;5.418;2023-03-01T04:52:00;15.48;;;8.52;;
65936;SDS011;52707;52.086;5.418;2023-03-01T04:54:28;16.27;;;9.15;;
65936;SDS011;52707;52.086;5.418;2023-03-01T04:56:54;14.38;;;9.18;;
65936;SDS011;52707;52.086;5.418;2023-03-01T04:59:21;13.77;;;8.88;;
65936;SDS011;52707;52.086;5.418;2023-03-01T05:01:49;16.73;;;9.90;;
65936;SDS011;52707;52.086;5.418;2023-03-01T05:04:15;15.13;;;9.80;;
65936;SDS011;52707;52.086;5.418;2023-03-01T05:06:42;17.75;;;9.63;;
65936;SDS011;52707;52.086;5.418;2023-03-01T05:09:08;13.60;;;9.10;;
65936;SDS011;52707;52.086;5.418;2023-03-01T05:11:34;15.75;;;10.50;;
65936;SDS011;52707;52.086;5.418;2023-03-01T05:14:02;16.33;;;10.32;;
65936;SDS011;52707;52.086;5.418;2023-03-01T05:16:29;16.05;;;9.95;;
65936;SDS011;52707;52.086;5.418;2023-03-01T05:19:00;19.92;;;10.15;;
65936;SDS011;52707;52.086;5.418;2023-03-01T05:21:26;18.67;;;10.35;;
65936;SDS011;52707;52.086;5.418;2023-03-01T05:23:52;17.02;;;10.05;;
65936;SDS011;52707;52.086;5.418;2023-03-01T05:26:19;14.70;;;10.38;;
65936;SDS011;52707;52.086;5.418;2023-03-01T05:28:54;17.50;;;10.48;;
65936;SDS011;52707;52.086;5.418;2023-03-01T05:31:24;16.58;;;10.15;;
65936;SDS011;52707;52.086;5.418;2023-03-01T05:33:50;13.80;;;9.20;;
65936;SDS011;52707;52.086;5.418;2023-03-01T05:36:17;16.88;;;10.68;;
65936;SDS011;52707;52.086;5.418;2023-03-01T05:38:44;19.75;;;10.68;;
65936;SDS011;52707;52.086;5.418;2023-03-01T05:41:14;25.83;;;11.10;;
65936;SDS011;52707;52.086;5.418;2023-03-01T05:43:40;25.83;;;12.93;;
65936;SDS011;52707;52.086;5.418;2023-03-01T05:46:09;19.63;;;11.45;;
65936;SDS011;52707;52.086;5.418;2023-03-01T05:48:38;28.75;;;12.35;;
65936;SDS011;52707;52.086;5.418;2023-03-01T05:51:05;22.17;;;12.45;;
65936;SDS011;52707;52.086;5.418;2023-03-01T05:53:32;20.33;;;11.35;;
65936;SDS011;52707;52.086;5.418;2023-03-01T05:55:58;22.10;;;12.65;;
65936;SDS011;52707;52.086;5.418;2023-03-01T05:58:24;18.13;;;11.57;;
65936;SDS011;52707;52.086;5.418;2023-03-01T06:00:51;18.42;;;12.63;;
65936;SDS011;52707;52.086;5.418;2023-03-01T06:03:20;26.98;;;12.98;;
65936;SDS011;52707;52.086;5.418;2023-03-01T06:05:46;22.85;;;13.32;;
65936;SDS011;52707;52.086;5.418;2023-03-01T06:08:13;26.02;;;12.75;;
65936;SDS011;52707;52.086;5.418;2023-03-01T06:10:39;25.30;;;11.98;;
65936;SDS011;52707;52.086;5.418;2023-03-01T06:13:06;21.05;;;12.45;;
65936;SDS011;52707;52.086;5.418;2023-03-01T06:15:33;25.73;;;12.43;;
65936;SDS011;52707;52.086;5.418;2023-03-01T06:17:59;22.08;;;11.45;;
65936;SDS011;52707;52.086;5.418;2023-03-01T06:20:26;23.15;;;12.38;;
65936;SDS011;52707;52.086;5.418;2023-03-01T06:22:53;22.98;;;11.90;;
65936;SDS011;52707;52.086;5.418;2023-03-01T06:25:20;22.45;;;12.18;;
65936;SDS011;52707;52.086;5.418;2023-03-01T06:27:48;20.55;;;10.95;;
65936;SDS011;52707;52.086;5.418;2023-03-01T06:30:15;20.23;;;11.48;;
65936;SDS011;52707;52.086;5.418;2023-03-01T06:32:42;20.05;;;12.05;;
65936;SDS011;52707;52.086;5.418;2023-03-01T06:35:12;19.05;;;12.10;;
65936;SDS011;52707;52.086;5.418;2023-03-01T06:37:39;21.35;;;12.10;;
65936;SDS011;52707;52.086;5.418;2023-03-01T06:40:06;18.63;;;11.98;;
65936;SDS011;52707;52.086;5.418;2023-03-01T06:42:38;22.77;;;12.23;;
65936;SDS011;52707;52.086;5.418;2023-03-01T06:45:05;18.83;;;11.68;;
65936;SDS011;52707;52.086;5.418;2023-03-01T06:47:32;18.42;;;11.73;;
65936;SDS011;52707;52.086;5.418;2023-03-01T06:49:59;16.60;;;10.57;;
65936;SDS011;52707;52.086;5.418;2023-03-01T06:52:25;20.42;;;12.50;;
65936;SDS011;52707;52.086;5.418;2023-03-01T06:54:52;18.67;;;12.07;;
65936;SDS011;52707;52.086;5.418;2023-03-01T06:57:18;23.80;;;12.15;;
65936;SDS011;52707;52.086;5.418;2023-03-01T06:59:45;16.98;;;12.15;;
65936;SDS011;52707;52.086;5.418;2023-03-01T07:02:12;22.30;;;12.95;;
65936;SDS011;52707;52.086;5.418;2023-03-01T07:04:39;17.02;;;12.00;;
65936;SDS011;52707;52.086;5.418;2023-03-01T07:07:05;22.75;;;12.73;;
65936;SDS011;52707;52.086;5.418;2023-03-01T07:09:32;18.63;;;12.98;;
65936;SDS011;52707;52.086;5.418;2023-03-01T07:11:58;21.80;;;12.80;;
65936;SDS011;52707;52.086;5.418;2023-03-01T07:14:24;24.40;;;13.50;;
65936;SDS011;52707;52.086;5.418;2023-03-01T07:16:52;19.77;;;13.38;;
65936;SDS011;52707;52.086;5.418;2023-03-01T07:19:18;26.45;;;12.48;;
65936;SDS011;52707;52.086;5.418;2023-03-01T07:21:45;25.60;;;13.50;;
65936;SDS011;52707;52.086;5.418;2023-03-01T07:24:11;19.33;;;12.70;;
65936;SDS011;52707;52.086;5.418;2023-03-01T07:26:37;19.33;;;12.98;;
65936;SDS011;52707;52.086;5.418;2023-03-01T07:29:04;25.35;;;13.40;;
65936;SDS011;52707;52.086;5.418;2023-03-01T07:31:31;18.50;;;12.27;;
65936;SDS011;52707;52.086;5.418;2023-03-01T07:33:57;23.38;;;12.68;;
65936;SDS011;52707;52.086;5.418;2023-03-01T07:36:24;17.80;;;12.60;;
65936;SDS011;52707;52.086;5.418;2023-03-01T07:38:50;19.70;;;12.88;;
65936;SDS011;52707;52.086;5.418;2023-03-01T07:41:17;19.75;;;13.40;;
65936;SDS011;52707;52.086;5.418;2023-03-01T07:43:43;19.45;;;12.80;;
65936;SDS011;52707;52.086;5.418;2023-03-01T07:46:09;20.13;;;13.75;;
65936;SDS011;52707;52.086;5.418;2023-03-01T07:48:36;27.90;;;14.77;;
65936;SDS011;52707;52.086;5.418;2023-03-01T07:51:03;20.75;;;13.57;;
65936;SDS011;52707;52.086;5.418;2023-03-01T07:53:30;29.05;;;14.70;;
65936;SDS011;52707;52.086;5.418;2023-03-01T07:56:00;23.93;;;14.70;;
65936;SDS011;52707;52.086;5.418;2023-03-01T07:58:27;20.13;;;12.85;;
65936;SDS011;52707;52.086;5.418;2023-03-01T08:00:53;27.52;;;14.20;;
65936;SDS011;52707;52.086;5.418;2023-03-01T08:03:19;23.92;;;14.88;;
65936;SDS011;52707;52.086;5.418;2023-03-01T08:05:46;21.67;;;13.45;;
65936;SDS011;52707;52.086;5.418;2023-03-01T08:08:12;24.75;;;14.55;;
65936;SDS011;52707;52.086;5.418;2023-03-01T08:10:38;21.50;;;14.27;;
65936;SDS011;52707;52.086;5.418;2023-03-01T08:13:05;22.58;;;14.73;;
65936;SDS011;52707;52.086;5.418;2023-03-01T08:15:31;23.55;;;13.95;;
65936;SDS011;52707;52.086;5.418;2023-03-01T08:17:57;27.35;;;13.88;;
65936;SDS011;52707;52.086;5.418;2023-03-01T08:20:23;24.80;;;14.65;;
65936;SDS011;52707;52.086;5.418;2023-03-01T08:22:50;20.55;;;13.27;;
65936;SDS011;52707;52.086;5.418;2023-03-01T08:25:16;24.40;;;14.98;;
65936;SDS011;52707;52.086;5.418;2023-03-01T08:27:42;24.20;;;14.35;;
65936;SDS011;52707;52.086;5.418;2023-03-01T08:30:09;19.00;;;13.20;;
65936;SDS011;52707;52.086;5.418;2023-03-01T08:32:37;22.30;;;14.38;;
65936;SDS011;52707;52.086;5.418;2023-03-01T08:35:03;22.08;;;13.02;;
65936;SDS011;52707;52.086;5.418;2023-03-01T08:37:30;20.60;;;12.77;;
65936;SDS011;52707;52.086;5.418;2023-03-01T08:39:59;23.88;;;12.73;;
65936;SDS011;52707;52.086;5.418;2023-03-01T08:42:26;20.35;;;11.80;;
65936;SDS011;52707;52.086;5.418;2023-03-01T08:44:52;22.35;;;12.70;;
65936;SDS011;52707;52.086;5.418;2023-03-01T08:47:18;21.08;;;12.02;;
65936;SDS011;52707;52.086;5.418;2023-03-01T08:49:45;17.35;;;11.00;;
65936;SDS011;52707;52.086;5.418;2023-03-01T08:52:11;18.75;;;12.15;;
65936;SDS011;52707;52.086;5.418;2023-03-01T08:54:37;19.73;;;11.52;;
65936;SDS011;52707;52.086;5.418;2023-03-01T08:57:04;24.05;;;12.25;;
65936;SDS011;52707;52.086;5.418;2023-03-01T08:59:30;30.13;;;12.27;;
65936;SDS011;52707;52.086;5.418;2023-03-01T09:02:01;22.10;;;12.32;;
65936;SDS011;52707;52.086;5.418;2023-03-01T09:04:27;17.58;;;11.95;;
65936;SDS011;52707;52.086;5.418;2023-03-01T09:06:54;21.25;;;11.30;;
65936;SDS011;52707;52.086;5.418;2023-03-01T09:09:20;18.55;;;10.82;;
65936;SDS011;52707;52.086;5.418;2023-03-01T09:11:47;21.42;;;11.00;;
65936;SDS011;52707;52.086;5.418;2023-03-01T09:14:15;26.35;;;11.02;;
65936;SDS011;52707;52.086;5.418;2023-03-01T09:16:42;19.40;;;11.07;;
65936;SDS011;52707;52.086;5.418;2023-03-01T09:19:09;20.65;;;8.85;;
65936;SDS011;52707;52.086;5.418;2023-03-01T09:21:35;17.88;;;9.93;;
65936;SDS011;52707;52.086;5.418;2023-03-01T09:24:14;13.55;;;8.30;;
65936;SDS011;52707;52.086;5.418;2023-03-01T09:26:40;13.70;;;7.97;;
65936;SDS011;52707;52.086;5.418;2023-03-01T09:29:07;12.77;;;7.38;;
65936;SDS011;52707;52.086;5.418;2023-03-01T09:31:35;11.93;;;6.07;;
65936;SDS011;52707;52.086;5.418;2023-03-01T09:34:01;10.52;;;7.30;;
65936;SDS011;52707;52.086;5.418;2023-03-01T09:36:28;11.35;;;7.15;;
65936;SDS011;52707;52.086;5.418;2023-03-01T09:38:55;9.85;;;6.45;;
65936;SDS011;52707;52.086;5.418;2023-03-01T09:46:43;12.15;;;6.07;;
65936;SDS011;52707;52.086;5.418;2023-03-01T09:49:19;9.77;;;6.13;;
65936;SDS011;52707;52.086;5.418;2023-03-01T09:51:57;7.88;;;5.60;;
65936;SDS011;52707;52.086;5.418;2023-03-01T09:54:24;11.57;;;5.50;;
65936;SDS011;52707;52.086;5.418;2023-03-01T09:56:59;7.95;;;4.30;;
65936;SDS011;52707;52.086;5.418;2023-03-01T09:59:39;9.10;;;5.38;;
65936;SDS011;52707;52.086;5.418;2023-03-01T10:05:03;8.60;;;4.47;;
65936;SDS011;52707;52.086;5.418;2023-03-01T10:10:26;4.40;;;3.83;;
65936;SDS011;52707;52.086;5.418;2023-03-01T10:12:53;4.50;;;4.05;;
65936;SDS011;52707;52.086;5.418;2023-03-01T10:15:22;6.57;;;4.28;;
65936;SDS011;52707;52.086;5.418;2023-03-01T10:17:57;5.75;;;3.95;;
65936;SDS011;52707;52.086;5.418;2023-03-01T10:20:28;6.35;;;4.07;;
65936;SDS011;52707;52.086;5.418;2023-03-01T10:22:56;5.50;;;4.20;;
65936;SDS011;52707;52.086;5.418;2023-03-01T10:25:31;5.40;;;3.95;;
65936;SDS011;52707;52.086;5.418;2023-03-01T10:28:05;5.70;;;3.83;;
65936;SDS011;52707;52.086;5.418;2023-03-01T10:30:37;4.85;;;3.60;;
65936;SDS011;52707;52.086;5.418;2023-03-01T10:33:29;7.80;;;3.67;;
65936;SDS011;52707;52.086;5.418;2023-03-01T10:35:57;6.07;;;3.70;;
65936;SDS011;52707;52.086;5.418;2023-03-01T10:38:23;7.70;;;3.78;;
65936;SDS011;52707;52.086;5.418;2023-03-01T10:40:53;5.38;;;3.70;;
65936;SDS011;52707;52.086;5.418;2023-03-01T10:43:20;4.05;;;3.17;;
65936;SDS011;52707;52.086;5.418;2023-03-01T10:45:47;3.95;;;2.90;;
65936;SDS011;52707;52.086;5.418;2023-03-01T10:48:20;5.20;;;3.10;;
65936;SDS011;52707;52.086;5.418;2023-03-01T10:51:12;2.97;;;2.65;;
65936;SDS011;52707;52.086;5.418;2023-03-01T10:53:37;5.47;;;2.80;;
65936;SDS011;52707;52.086;5.418;2023-03-01T10:56:07;7.15;;;2.78;;
65936;SDS011;52707;52.086;5.418;2023-03-01T10:58:35;4.57;;;2.67;;
65936;SDS011;52707;52.086;5.418;2023-03-01T11:03:43;3.13;;;2.60;;
65936;SDS011;52707;52.086;5.418;2023-03-01T11:08:42;9.27;;;2.70;;
65936;SDS011;52707;52.086;5.418;2023-03-01T11:13:46;3.13;;;2.50;;
65936;SDS011;52707;52.086;5.418;2023-03-01T11:16:14;3.05;;;2.63;;
65936;SDS011;52707;52.086;5.418;2023-03-01T11:18:40;4.85;;;2.83;;
65936;SDS011;52707;52.086;5.418;2023-03-01T11:21:14;5.75;;;2.92;;
65936;SDS011;52707;52.086;5.418;2023-03-01T11:23:41;3.75;;;2.70;;
65936;SDS011;52707;52.086;5.418;2023-03-01T11:26:09;5.85;;;2.88;;
65936;SDS011;52707;52.086;5.418;2023-03-01T11:28:38;2.57;;;2.20;;
65936;SDS011;52707;52.086;5.418;2023-03-01T11:31:08;4.45;;;2.80;;
65936;SDS011;52707;52.086;5.418;2023-03-01T11:33:48;6.20;;;2.53;;
65936;SDS011;52707;52.086;5.418;2023-03-01T11:36:27;3.17;;;2.22;;
65936;SDS011;52707;52.086;5.418;2023-03-01T11:38:56;2.50;;;2.30;;
65936;SDS011;52707;52.086;5.418;2023-03-01T11:41:26;4.05;;;2.55;;
65936;SDS011;52707;52.086;5.418;2023-03-01T11:43:58;2.50;;;2.30;;
65936;SDS011;52707;52.086;5.418;2023-03-01T11:56:59;4.18;;;2.67;;
65936;SDS011;52707;52.086;5.418;2023-03-01T11:59:33;3.42;;;2.53;;
65936;SDS011;52707;52.086;5.418;2023-03-01T12:07:35;3.25;;;2.95;;
65936;SDS011;52707;52.086;5.418;2023-03-01T12:12:43;4.50;;;3.20;;
65936;SDS011;52707;52.086;5.418;2023-03-01T12:17:52;3.10;;;2.80;;
65936;SDS011;52707;52.086;5.418;2023-03-01T12:31:00;6.45;;;2.92;;
65936;SDS011;52707;52.086;5.418;2023-03-01T12:33:53;5.65;;;2.70;;
65936;SDS011;52707;52.086;5.418;2023-03-01T12:36:24;2.85;;;2.38;;
65936;SDS011;52707;52.086;5.418;2023-03-01T12:44:12;4.45;;;2.60;;
65936;SDS011;52707;52.086;5.418;2023-03-01T12:49:15;3.20;;;2.80;;
65936;SDS011;52707;52.086;5.418;2023-03-01T12:51:44;6.55;;;3.20;;
65936;SDS011;52707;52.086;5.418;2023-03-01T12:54:26;3.83;;;3.40;;
65936;SDS011;52707;52.086;5.418;2023-03-01T12:56:53;5.13;;;3.17;;
65936;SDS011;52707;52.086;5.418;2023-03-01T12:59:23;8.02;;;3.10;;
65936;SDS011;52707;52.086;5.418;2023-03-01T13:02:08;3.97;;;3.30;;
65936;SDS011;52707;52.086;5.418;2023-03-01T13:07:21;3.38;;;3.08;;
65936;SDS011;52707;52.086;5.418;2023-03-01T13:10:10;5.00;;;2.90;;
65936;SDS011;52707;52.086;5.418;2023-03-01T13:13:01;3.78;;;3.10;;
65936;SDS011;52707;52.086;5.418;2023-03-01T13:15:29;3.72;;;3.35;;
65936;SDS011;52707;52.086;5.418;2023-03-01T13:17:57;6.43;;;3.45;;
65936;SDS011;52707;52.086;5.418;2023-03-01T13:23:00;6.40;;;3.00;;
65936;SDS011;52707;52.086;5.418;2023-03-01T13:25:27;4.40;;;3.28;;
65936;SDS011;52707;52.086;5.418;2023-03-01T13:30:52;3.40;;;3.10;;
65936;SDS011;52707;52.086;5.418;2023-03-01T13:35:54;3.75;;;3.13;;
65936;SDS011;52707;52.086;5.418;2023-03-01T13:38:37;5.50;;;3.03;;
65936;SDS011;52707;52.086;5.418;2023-03-01T13:41:03;6.25;;;3.63;;
65936;SDS011;52707;52.086;5.418;2023-03-01T13:43:31;4.25;;;3.00;;
65936;SDS011;52707;52.086;5.418;2023-03-01T13:45:58;9.23;;;3.55;;
65936;SDS011;52707;52.086;5.418;2023-03-01T13:48:27;3.63;;;2.65;;
65936;SDS011;52707;52.086;5.418;2023-03-01T13:51:03;6.20;;;3.28;;
65936;SDS011;52707;52.086;5.418;2023-03-01T13:53:33;5.32;;;3.83;;
65936;SDS011;52707;52.086;5.418;2023-03-01T13:56:01;5.32;;;3.25;;
65936;SDS011;52707;52.086;5.418;2023-03-01T13:58:30;4.50;;;2.92;;
65936;SDS011;52707;52.086;5.418;2023-03-01T14:03:22;4.45;;;3.30;;
65936;SDS011;52707;52.086;5.418;2023-03-01T14:08:38;4.20;;;3.28;;
65936;SDS011;52707;52.086;5.418;2023-03-01T14:16:40;4.10;;;3.17;;
65936;SDS011;52707;52.086;5.418;2023-03-01T14:19:18;6.07;;;2.85;;
65936;SDS011;52707;52.086;5.418;2023-03-01T14:22:20;4.95;;;3.15;;
65936;SDS011;52707;52.086;5.418;2023-03-01T14:27:35;7.00;;;3.10;;
